createdAt,value
2018-04-16T00:00:25.021Z,15.60
2018-04-16T00:02:52.588Z,15.50
2018-04-16T00:05:20.754Z,15.70
2018-04-16T00:07:48.223Z,15.60
2018-04-16T00:10:16.454Z,15.60
2018-04-16T00:12:43.928Z,15.60
2018-04-16T00:15:11.402Z,15.60
2018-04-16T00:17:39.635Z,15.60
2018-04-16T00:20:07.106Z,15.50
2018-04-16T00:22:34.584Z,15.50
2018-04-16T00:25:02.835Z,15.60
2018-04-16T00:27:30.303Z,15.50
2018-04-16T00:29:57.782Z,15.60
2018-04-16T00:32:30.965Z,15.60
2018-04-16T00:35:04.236Z,15.50
2018-04-16T00:37:37.500Z,15.50
2018-04-16T00:40:10.728Z,15.50
2018-04-16T00:42:44.003Z,15.50
2018-04-16T00:45:17.311Z,15.30
2018-04-16T00:47:50.567Z,15.30
2018-04-16T00:50:23.759Z,15.30
2018-04-16T00:52:56.981Z,15.30
2018-04-16T00:55:30.280Z,15.20
2018-04-16T01:01:03.175Z,15.10
2018-04-16T01:03:36.331Z,15.10
2018-04-16T01:06:09.444Z,15.10
2018-04-16T01:08:42.650Z,14.90
2018-04-16T01:11:15.948Z,14.90
2018-04-16T01:13:49.101Z,14.90
2018-04-16T01:16:22.271Z,14.90
2018-04-16T01:18:56.323Z,14.90
2018-04-16T01:21:29.608Z,14.90
2018-04-16T01:24:02.828Z,15.00
2018-04-16T01:26:35.923Z,14.90
2018-04-16T01:29:09.106Z,14.80
2018-04-16T01:31:42.384Z,14.80
2018-04-16T01:34:15.443Z,14.80
2018-04-16T01:36:48.691Z,14.90
2018-04-16T01:39:21.929Z,15.00
2018-04-16T01:41:55.270Z,15.00
2018-04-16T01:44:28.536Z,15.00
2018-04-16T01:47:01.596Z,15.00
2018-04-16T01:49:34.843Z,15.00
2018-04-16T01:52:08.124Z,15.00
2018-04-16T01:54:41.428Z,15.00
2018-04-16T01:57:14.568Z,15.10
2018-04-16T01:59:47.780Z,15.10
2018-04-16T02:02:20.978Z,15.10
2018-04-16T02:04:54.062Z,15.00
2018-04-16T02:07:27.356Z,15.00
2018-04-16T02:10:00.780Z,15.00
2018-04-16T02:12:34.063Z,15.00
2018-04-16T02:15:07.336Z,14.90
2018-04-16T02:17:40.628Z,14.80
2018-04-16T02:20:13.976Z,14.90
2018-04-16T02:22:47.935Z,14.80
2018-04-16T02:25:21.000Z,14.80
2018-04-16T02:27:54.123Z,14.80
2018-04-16T02:30:27.313Z,14.80
2018-04-16T02:33:00.384Z,14.70
2018-04-16T02:35:33.573Z,14.80
2018-04-16T02:38:06.887Z,14.70
2018-04-16T02:40:40.175Z,14.80
2018-04-16T02:43:13.490Z,14.80
2018-04-16T02:45:46.759Z,14.80
2018-04-16T02:48:19.947Z,14.90
2018-04-16T02:50:53.251Z,14.80
2018-04-16T02:53:26.372Z,14.80
2018-04-16T02:55:59.628Z,14.80
2018-04-16T02:58:32.898Z,14.90
2018-04-16T03:01:06.071Z,14.90
2018-04-16T03:03:39.177Z,15.00
2018-04-16T03:06:12.375Z,15.00
2018-04-16T03:08:45.620Z,15.10
2018-04-16T03:11:18.872Z,15.00
2018-04-16T03:13:52.199Z,15.00
2018-04-16T03:16:25.487Z,15.10
2018-04-16T03:18:58.664Z,15.10
2018-04-16T03:21:31.994Z,15.10
2018-04-16T03:24:05.875Z,15.20
2018-04-16T03:26:39.005Z,15.20
2018-04-16T03:32:14.016Z,15.20
2018-04-16T03:34:47.308Z,15.10
2018-04-16T03:37:20.579Z,15.00
2018-04-16T03:39:53.968Z,14.90
2018-04-16T03:42:27.059Z,14.80
2018-04-16T03:45:00.130Z,14.80
2018-04-16T03:47:33.367Z,14.80
2018-04-16T03:50:06.468Z,14.60
2018-04-16T03:52:39.524Z,14.50
2018-04-16T03:58:15.603Z,14.40
2018-04-16T04:00:43.080Z,14.30
2018-04-16T04:03:10.555Z,14.20
2018-04-16T04:05:38.876Z,14.20
2018-04-16T04:08:06.383Z,14.10
2018-04-16T04:10:33.863Z,14.10
2018-04-16T04:13:02.108Z,13.90
2018-04-16T04:15:29.587Z,13.80
2018-04-16T04:17:57.843Z,13.80
2018-04-16T04:20:25.336Z,13.70
2018-04-16T04:23:04.690Z,13.80
2018-04-16T04:25:44.082Z,13.80
2018-04-16T04:28:24.308Z,13.80
2018-04-16T04:30:51.889Z,13.70
2018-04-16T04:33:19.447Z,13.70
2018-04-16T04:35:46.929Z,13.70
2018-04-16T04:38:14.400Z,13.50
2018-04-16T04:40:41.868Z,13.50
2018-04-16T04:43:09.379Z,13.50
2018-04-16T04:45:36.990Z,13.50
2018-04-16T04:48:04.459Z,13.50
2018-04-16T04:50:31.970Z,13.40
2018-04-16T04:53:00.234Z,13.40
2018-04-16T04:55:27.688Z,13.30
2018-04-16T04:57:55.248Z,13.30
2018-04-16T05:00:22.716Z,13.30
2018-04-16T05:02:50.952Z,13.10
2018-04-16T05:05:18.416Z,13.00
2018-04-16T05:07:45.883Z,13.00
2018-04-16T05:10:14.133Z,13.10
2018-04-16T05:12:41.603Z,13.00
2018-04-16T05:15:09.071Z,13.10
2018-04-16T05:17:36.543Z,13.20
2018-04-16T05:20:04.779Z,13.30
2018-04-16T05:22:32.257Z,13.20
2018-04-16T05:24:59.815Z,13.20
2018-04-16T05:27:27.292Z,13.30
2018-04-16T05:29:55.524Z,13.00
2018-04-16T05:32:23.008Z,13.00
2018-04-16T05:34:50.479Z,13.00
2018-04-16T05:37:18.726Z,12.90
2018-04-16T05:39:46.200Z,12.90
2018-04-16T05:42:13.676Z,12.80
2018-04-16T05:44:41.944Z,12.70
2018-04-16T05:47:10.191Z,12.70
2018-04-16T05:49:37.667Z,12.70
2018-04-16T05:52:05.144Z,12.80
2018-04-16T05:54:33.454Z,12.90
2018-04-16T05:57:01.009Z,12.80
2018-04-16T05:59:28.476Z,12.90
2018-04-16T06:01:56.027Z,12.80
2018-04-16T06:04:23.503Z,12.70
2018-04-16T06:06:50.992Z,12.70
2018-04-16T06:09:18.471Z,12.60
2018-04-16T06:11:45.959Z,12.40
2018-04-16T06:14:13.440Z,12.50
2018-04-16T06:16:40.923Z,12.60
2018-04-16T06:19:09.208Z,12.60
2018-04-16T06:21:37.483Z,12.60
2018-04-16T06:24:05.715Z,12.50
2018-04-16T06:26:33.190Z,12.50
2018-04-16T06:29:00.668Z,12.50
2018-04-16T06:31:28.899Z,12.60
2018-04-16T06:33:56.493Z,12.50
2018-04-16T06:36:24.800Z,12.50
2018-04-16T06:38:52.597Z,12.50
2018-04-16T06:41:20.064Z,12.60
2018-04-16T06:43:47.537Z,12.50
2018-04-16T06:46:15.100Z,12.40
2018-04-16T06:48:43.020Z,12.30
2018-04-16T06:51:10.500Z,12.30
2018-04-16T06:53:37.966Z,12.30
2018-04-16T06:56:05.434Z,12.40
2018-04-16T06:58:32.907Z,12.50
2018-04-16T07:01:01.229Z,12.70
2018-04-16T07:03:28.715Z,12.70
2018-04-16T07:05:56.203Z,12.80
2018-04-16T07:08:24.604Z,12.90
2018-04-16T07:10:52.067Z,12.80
2018-04-16T07:13:19.584Z,12.90
2018-04-16T07:15:47.101Z,12.90
2018-04-16T07:18:14.570Z,12.70
2018-04-16T07:20:42.051Z,12.70
2018-04-16T07:23:09.538Z,12.50
2018-04-16T07:25:37.044Z,12.40
2018-04-16T07:28:04.622Z,12.40
2018-04-16T07:30:32.099Z,12.40
2018-04-16T07:33:00.359Z,12.50
2018-04-16T07:35:27.845Z,12.40
2018-04-16T07:37:55.316Z,12.40
2018-04-16T07:40:22.807Z,12.40
2018-04-16T07:42:50.310Z,12.40
2018-04-16T07:45:17.799Z,12.30
2018-04-16T07:47:45.285Z,12.40
2018-04-16T07:50:12.814Z,12.50
2018-04-16T07:52:40.308Z,12.40
2018-04-16T07:55:07.876Z,12.40
2018-04-16T07:57:36.143Z,12.40
2018-04-16T08:00:03.634Z,12.30
2018-04-16T08:02:31.106Z,12.40
2018-04-16T08:04:58.631Z,12.50
2018-04-16T08:07:26.883Z,12.60
2018-04-16T08:09:54.559Z,12.50
2018-04-16T08:12:22.028Z,12.70
2018-04-16T08:14:50.288Z,12.70
2018-04-16T08:17:18.576Z,12.80
2018-04-16T08:19:46.075Z,12.80
2018-04-16T08:22:13.604Z,12.90
2018-04-16T08:24:41.037Z,13.00
2018-04-16T08:27:08.626Z,12.90
2018-04-16T08:29:36.151Z,12.90
2018-04-16T08:32:03.631Z,13.00
2018-04-16T08:34:31.883Z,13.10
2018-04-16T08:36:59.363Z,13.00
2018-04-16T08:39:27.617Z,13.00
2018-04-16T08:41:55.178Z,13.00
2018-04-16T08:44:22.635Z,12.90
2018-04-16T08:46:50.144Z,13.00
2018-04-16T08:49:17.651Z,13.10
2018-04-16T08:51:45.121Z,13.10
2018-04-16T08:54:13.351Z,13.30
2018-04-16T08:56:40.841Z,13.30
2018-04-16T08:59:08.300Z,13.50
2018-04-16T09:01:35.773Z,13.60
2018-04-16T09:04:04.013Z,13.60
2018-04-16T09:06:31.491Z,13.60
2018-04-16T09:08:58.967Z,13.70
2018-04-16T09:11:27.214Z,13.90
2018-04-16T09:13:54.689Z,13.90
2018-04-16T09:16:22.923Z,14.10
2018-04-16T09:18:50.395Z,14.10
2018-04-16T09:21:17.867Z,14.20
2018-04-16T09:23:45.427Z,14.30
2018-04-16T09:26:12.943Z,14.40
2018-04-16T09:28:40.439Z,14.50
2018-04-16T09:31:07.965Z,14.50
2018-04-16T09:33:35.443Z,14.50
2018-04-16T09:36:02.931Z,14.70
2018-04-16T09:38:31.180Z,15.10
2018-04-16T09:40:58.660Z,15.00
2018-04-16T09:43:26.912Z,15.10
2018-04-16T09:45:54.391Z,15.00
2018-04-16T09:48:22.619Z,15.20
2018-04-16T09:50:50.104Z,15.20
2018-04-16T09:53:17.571Z,15.30
2018-04-16T09:55:45.092Z,15.30
2018-04-16T09:58:12.563Z,15.40
2018-04-16T10:00:45.868Z,15.40
2018-04-16T10:03:18.130Z,15.30
2018-04-16T10:05:45.619Z,15.30
2018-04-16T10:08:13.868Z,15.10
2018-04-16T10:10:41.354Z,15.00
2018-04-16T10:13:09.596Z,15.10
2018-04-16T10:15:37.169Z,15.10
2018-04-16T10:18:06.195Z,15.00
2018-04-16T10:20:33.639Z,15.00
2018-04-16T10:23:01.123Z,15.10
2018-04-16T10:25:28.680Z,15.30
2018-04-16T10:27:56.167Z,15.50
2018-04-16T10:30:23.646Z,15.50
2018-04-16T10:32:51.924Z,15.80
2018-04-16T10:35:19.408Z,15.70
2018-04-16T10:37:46.908Z,15.90
2018-04-16T10:40:14.372Z,15.90
2018-04-16T10:42:41.954Z,16.10
2018-04-16T10:45:10.187Z,16.50
2018-04-16T10:47:37.687Z,16.40
2018-04-16T10:50:05.178Z,16.80
2018-04-16T10:52:32.653Z,16.80
2018-04-16T10:55:00.155Z,16.70
2018-04-16T10:57:27.618Z,16.80
2018-04-16T10:59:55.079Z,17.10
2018-04-16T11:02:22.676Z,17.50
2018-04-16T11:04:50.138Z,17.70
2018-04-16T11:07:17.643Z,17.70
2018-04-16T11:09:45.111Z,17.90
2018-04-16T11:12:13.369Z,18.30
2018-04-16T11:14:40.837Z,18.30
2018-04-16T11:17:08.316Z,18.40
2018-04-16T11:19:36.559Z,18.70
2018-04-16T11:22:04.117Z,18.60
2018-04-16T11:24:31.676Z,18.70
2018-04-16T11:26:59.964Z,18.80
2018-04-16T11:29:27.424Z,18.70
2018-04-16T11:31:55.672Z,19.00
2018-04-16T11:34:23.236Z,18.90
2018-04-16T11:36:52.223Z,18.90
2018-04-16T11:39:19.707Z,18.90
2018-04-16T11:41:48.066Z,19.80
2018-04-16T11:44:15.591Z,19.70
2018-04-16T11:46:43.048Z,20.20
2018-04-16T11:49:10.518Z,20.30
2018-04-16T11:51:38.256Z,20.30
2018-04-16T11:54:05.727Z,20.40
2018-04-16T11:56:33.187Z,20.40
2018-04-16T11:59:00.659Z,20.40
2018-04-16T12:01:28.126Z,20.40
2018-04-16T12:03:55.592Z,20.50
2018-04-16T12:06:23.151Z,20.80
2018-04-16T12:08:50.628Z,21.00
2018-04-16T12:11:18.855Z,21.40
2018-04-16T12:13:46.442Z,21.30
2018-04-16T12:16:13.911Z,21.10
2018-04-16T12:18:42.135Z,20.50
2018-04-16T12:21:09.607Z,20.40
2018-04-16T12:23:37.081Z,20.10
2018-04-16T12:26:04.559Z,19.80
2018-04-16T12:28:32.787Z,19.00
2018-04-16T12:31:00.263Z,19.00
2018-04-16T12:33:27.885Z,18.70
2018-04-16T12:35:55.355Z,18.60
2018-04-16T12:38:22.864Z,18.80
2018-04-16T12:40:51.104Z,18.80
2018-04-16T12:43:18.577Z,18.80
2018-04-16T12:45:46.146Z,18.80
2018-04-16T12:48:13.611Z,18.70
2018-04-16T12:50:41.853Z,18.60
2018-04-16T12:53:09.339Z,18.50
2018-04-16T12:55:36.803Z,18.40
2018-04-16T12:58:05.051Z,18.50
2018-04-16T13:00:34.079Z,18.40
2018-04-16T13:03:02.324Z,18.30
2018-04-16T13:05:31.303Z,18.20
2018-04-16T13:07:58.767Z,18.20
2018-04-16T13:10:26.236Z,18.10
2018-04-16T13:12:53.707Z,18.00
2018-04-16T13:15:21.951Z,18.10
2018-04-16T13:17:49.519Z,18.00
2018-04-16T13:20:17.115Z,18.10
2018-04-16T13:22:44.592Z,18.00
2018-04-16T13:25:12.079Z,17.90
2018-04-16T13:27:39.571Z,17.70
2018-04-16T13:30:07.796Z,17.40
2018-04-16T13:32:35.267Z,17.30
2018-04-16T13:35:02.735Z,17.40
2018-04-16T13:37:31.712Z,17.10
2018-04-16T13:39:59.288Z,17.10
2018-04-16T13:42:26.761Z,17.00
2018-04-16T13:44:54.229Z,17.00
2018-04-16T13:47:22.483Z,17.00
2018-04-16T13:49:49.952Z,16.90
2018-04-16T13:52:18.198Z,17.00
2018-04-16T13:54:45.655Z,17.00
2018-04-16T13:57:13.127Z,17.10
2018-04-16T13:59:40.588Z,17.00
2018-04-16T14:02:08.135Z,16.90
2018-04-16T14:04:35.600Z,16.70
2018-04-16T14:07:04.579Z,16.70
2018-04-16T14:09:32.151Z,16.70
2018-04-16T14:11:59.640Z,16.70
2018-04-16T14:14:27.111Z,16.50
2018-04-16T14:16:54.588Z,16.40
2018-04-16T14:19:22.069Z,16.20
2018-04-16T14:21:49.636Z,16.20
2018-04-16T14:24:17.158Z,16.10
2018-04-16T14:26:45.360Z,16.10
2018-04-16T14:29:13.612Z,16.10
2018-04-16T14:31:41.103Z,16.10
2018-04-16T14:34:08.594Z,16.20
2018-04-16T14:36:36.060Z,16.20
2018-04-16T14:39:03.591Z,16.20
2018-04-16T14:41:31.952Z,16.30
2018-04-16T14:43:59.459Z,16.30
2018-04-16T14:46:27.070Z,16.30
2018-04-16T14:48:54.535Z,16.20
2018-04-16T14:51:22.775Z,16.10
2018-04-16T14:53:50.255Z,16.10
2018-04-16T14:56:17.815Z,16.00
2018-04-16T14:58:45.376Z,15.80
2018-04-16T15:01:12.851Z,15.70
2018-04-16T15:03:41.083Z,15.50
2018-04-16T15:06:08.556Z,15.50
2018-04-16T15:08:36.030Z,15.40
2018-04-16T15:11:04.280Z,15.40
2018-04-16T15:13:31.911Z,15.30
2018-04-16T15:15:59.396Z,15.40
2018-04-16T15:18:26.876Z,15.40
2018-04-16T15:20:54.339Z,15.40
2018-04-16T15:23:22.631Z,15.50
2018-04-16T15:25:50.176Z,15.40
2018-04-16T15:28:17.603Z,15.50
2018-04-16T15:30:45.076Z,15.60
2018-04-16T15:33:12.552Z,15.60
2018-04-16T15:35:41.807Z,15.50
2018-04-16T15:38:09.286Z,15.40
2018-04-16T15:40:36.765Z,15.50
2018-04-16T15:43:05.020Z,15.40
2018-04-16T15:45:32.490Z,15.40
2018-04-16T15:48:00.742Z,15.40
2018-04-16T15:50:28.224Z,15.40
2018-04-16T15:52:56.463Z,15.60
2018-04-16T15:55:24.031Z,15.60
2018-04-16T15:57:51.511Z,15.60
2018-04-16T16:00:19.760Z,15.70
2018-04-16T16:02:47.248Z,15.60
2018-04-16T16:05:15.499Z,15.70
2018-04-16T16:07:42.985Z,15.60
2018-04-16T16:10:11.232Z,15.50
2018-04-16T16:12:38.717Z,15.50
2018-04-16T16:15:07.085Z,15.60
2018-04-16T16:17:34.519Z,15.50
2018-04-16T16:20:02.086Z,15.60
2018-04-16T16:22:29.555Z,15.50
2018-04-16T16:24:57.799Z,15.50
2018-04-16T16:27:25.375Z,15.40
2018-04-16T16:29:52.860Z,15.50
2018-04-16T16:32:21.123Z,15.70
2018-04-16T16:34:49.359Z,15.70
2018-04-16T16:37:16.836Z,15.70
2018-04-16T16:39:44.335Z,15.70
2018-04-16T16:42:11.805Z,15.70
2018-04-16T16:44:39.292Z,15.80
2018-04-16T16:47:06.867Z,15.70
2018-04-16T16:49:34.427Z,15.80
2018-04-16T16:52:01.995Z,15.90
2018-04-16T16:54:29.475Z,15.80
2018-04-16T16:56:57.713Z,15.80
2018-04-16T16:59:25.212Z,15.70
2018-04-16T17:01:52.704Z,15.70
2018-04-16T17:04:20.245Z,15.70
2018-04-16T17:06:47.722Z,15.80
2018-04-16T17:09:15.188Z,15.80
2018-04-16T17:11:42.671Z,15.80
2018-04-16T17:14:10.911Z,15.80
2018-04-16T17:16:38.407Z,15.70
2018-04-16T17:19:06.639Z,15.80
2018-04-16T17:21:34.119Z,15.70
2018-04-16T17:24:01.690Z,15.80
2018-04-16T17:26:29.168Z,15.70
2018-04-16T17:28:57.418Z,15.70
2018-04-16T17:31:24.975Z,15.60
2018-04-16T17:33:52.452Z,15.60
2018-04-16T17:36:20.700Z,15.50
2018-04-16T17:38:48.159Z,15.50
2018-04-16T17:41:15.639Z,15.50
2018-04-16T17:43:43.887Z,15.40
2018-04-16T17:46:11.361Z,15.30
2018-04-16T17:48:39.603Z,15.40
2018-04-16T17:51:07.103Z,15.30
2018-04-16T17:53:35.331Z,15.40
2018-04-16T17:56:02.815Z,15.30
2018-04-16T17:58:30.295Z,15.30
2018-04-16T18:00:58.552Z,15.40
2018-04-16T18:03:26.103Z,15.40
2018-04-16T18:05:53.567Z,15.40
2018-04-16T18:08:21.043Z,15.40
2018-04-16T18:10:49.272Z,15.50
2018-04-16T18:13:16.753Z,15.40
2018-04-16T18:15:44.312Z,15.50
2018-04-16T18:18:11.875Z,15.50
2018-04-16T18:20:39.342Z,15.50
2018-04-16T18:23:06.815Z,15.50
2018-04-16T18:25:34.287Z,15.50
2018-04-16T18:28:01.772Z,15.50
2018-04-16T18:30:29.259Z,15.50
2018-04-16T18:32:56.823Z,15.50
2018-04-16T18:35:24.291Z,15.50
2018-04-16T18:37:52.536Z,15.50
2018-04-16T18:40:19.995Z,15.50
2018-04-16T18:42:47.488Z,15.50
2018-04-16T18:45:15.028Z,15.50
2018-04-16T18:47:42.493Z,15.40
2018-04-16T18:50:10.752Z,15.30
2018-04-16T18:52:38.311Z,15.30
2018-04-16T18:55:05.777Z,15.30
2018-04-16T18:57:33.252Z,15.30
2018-04-16T19:00:01.492Z,15.30
2018-04-16T19:02:28.983Z,15.20
2018-04-16T19:04:57.230Z,15.30
2018-04-16T19:07:24.734Z,15.20
2018-04-16T19:09:52.956Z,15.30
2018-04-16T19:12:20.527Z,15.30
2018-04-16T19:14:48.035Z,15.30
2018-04-16T19:17:15.517Z,15.30
2018-04-16T19:19:42.995Z,15.30
2018-04-16T19:22:11.245Z,15.30
2018-04-16T19:24:38.732Z,15.30
2018-04-16T19:27:11.941Z,15.30
2018-04-16T19:29:40.197Z,15.30
2018-04-16T19:32:07.670Z,15.20
2018-04-16T19:34:41.563Z,15.30
2018-04-16T19:37:09.141Z,15.30
2018-04-16T19:39:37.471Z,15.20
2018-04-16T19:42:10.612Z,15.20
2018-04-16T19:44:38.092Z,15.10
2018-04-16T19:47:05.565Z,15.10
2018-04-16T19:49:38.758Z,15.10
2018-04-16T19:52:06.259Z,15.10
2018-04-16T19:54:34.506Z,15.00
2018-04-16T19:57:07.609Z,14.90
2018-04-16T19:59:35.174Z,14.90
2018-04-16T20:02:08.316Z,15.00
2018-04-16T20:04:35.808Z,14.90
2018-04-16T20:07:04.057Z,15.00
2018-04-16T20:09:31.548Z,14.90
2018-04-16T20:11:59.019Z,14.90
2018-04-16T20:14:27.268Z,14.90
2018-04-16T20:16:54.748Z,14.80
2018-04-16T20:19:23.004Z,14.90
2018-04-16T20:21:50.488Z,14.90
2018-04-16T20:24:17.960Z,15.00
2018-04-16T20:26:45.432Z,14.90
2018-04-16T20:29:12.899Z,14.90
2018-04-16T20:31:40.381Z,14.70
2018-04-16T20:34:07.855Z,14.80
2018-04-16T20:36:35.414Z,14.80
2018-04-16T20:39:03.663Z,14.70
2018-04-16T20:41:31.186Z,14.60
2018-04-16T20:43:58.704Z,14.70
2018-04-16T20:46:26.211Z,14.60
2018-04-16T20:48:53.687Z,14.60
2018-04-16T20:51:21.170Z,14.60
2018-04-16T20:53:48.652Z,14.50
2018-04-16T20:56:16.899Z,14.40
2018-04-16T20:58:44.467Z,14.40
2018-04-16T21:01:12.028Z,14.40
2018-04-16T21:03:39.535Z,14.50
2018-04-16T21:06:07.040Z,14.30
2018-04-16T21:08:34.508Z,14.30
2018-04-16T21:11:02.754Z,14.20
2018-04-16T21:13:30.235Z,14.20
2018-04-16T21:15:57.700Z,14.20
2018-04-16T21:18:25.939Z,14.20
2018-04-16T21:20:53.399Z,14.20
2018-04-16T21:23:20.929Z,14.20
2018-04-16T21:25:48.435Z,14.20
2018-04-16T21:28:15.967Z,14.20
2018-04-16T21:30:43.419Z,14.20
2018-04-16T21:33:10.904Z,14.20
2018-04-16T21:35:38.371Z,14.20
2018-04-16T21:38:06.604Z,14.10
2018-04-16T21:40:34.095Z,14.10
2018-04-16T21:43:01.607Z,14.10
2018-04-16T21:45:29.117Z,14.00
2018-04-16T21:47:56.587Z,14.00
2018-04-16T21:50:24.828Z,13.90
2018-04-16T21:52:52.315Z,13.80
2018-04-16T21:55:20.555Z,13.90
2018-04-16T21:57:48.147Z,13.80
2018-04-16T22:00:16.375Z,13.80
2018-04-16T22:02:43.859Z,13.80
2018-04-16T22:05:11.356Z,13.80
2018-04-16T22:07:38.828Z,13.80
2018-04-16T22:10:06.356Z,13.80
2018-04-16T22:12:34.608Z,13.70
2018-04-16T22:15:02.092Z,13.60
2018-04-16T22:17:30.319Z,13.70
2018-04-16T22:19:57.806Z,13.60
2018-04-16T22:22:25.283Z,13.70
2018-04-16T22:24:53.535Z,13.70
2018-04-16T22:27:21.014Z,13.60
2018-04-16T22:29:49.259Z,13.70
2018-04-16T22:32:16.728Z,13.60
2018-04-16T22:34:44.207Z,13.70
2018-04-16T22:37:12.459Z,13.70
2018-04-16T22:39:39.936Z,13.70
2018-04-16T22:42:08.167Z,13.50
2018-04-16T22:44:35.715Z,13.50
2018-04-16T22:47:03.175Z,13.50
2018-04-16T22:49:30.710Z,13.50
2018-04-16T22:51:58.189Z,13.50
2018-04-16T22:54:25.685Z,13.50
2018-04-16T22:56:53.920Z,13.60
2018-04-16T22:59:21.404Z,13.50
2018-04-16T23:01:48.967Z,13.50
2018-04-16T23:04:16.456Z,13.50
2018-04-16T23:06:43.979Z,13.50
2018-04-16T23:09:11.539Z,13.50
2018-04-16T23:11:39.008Z,13.50
2018-04-16T23:14:07.379Z,13.50
2018-04-16T23:16:34.922Z,13.40
2018-04-16T23:19:02.472Z,13.50
2018-04-16T23:21:29.951Z,13.40
2018-04-16T23:23:57.496Z,13.50
2018-04-16T23:26:24.984Z,13.50
2018-04-16T23:28:53.218Z,13.40
2018-04-16T23:31:20.684Z,13.40
2018-04-16T23:33:48.243Z,13.40
2018-04-16T23:36:15.730Z,13.40
2018-04-16T23:38:43.955Z,13.40
2018-04-16T23:41:11.435Z,13.30
2018-04-16T23:43:38.911Z,13.30
2018-04-16T23:46:07.187Z,13.40
2018-04-16T23:48:35.488Z,13.40
2018-04-16T23:51:02.950Z,13.30
2018-04-16T23:53:30.459Z,13.30
2018-04-16T23:55:57.934Z,13.30
2018-04-16T23:58:26.161Z,13.30
